createdAt,value
2018-10-21T00:01:59.018Z,9.30
2018-10-21T00:04:26.411Z,9.17
2018-10-21T00:06:53.673Z,10.23
2018-10-21T00:09:21.742Z,9.73
2018-10-21T00:11:49.234Z,9.33
2018-10-21T00:14:16.514Z,9.57
2018-10-21T00:16:43.766Z,9.80
2018-10-21T00:19:11.067Z,9.83
2018-10-21T00:21:38.368Z,9.83
2018-10-21T00:24:05.919Z,9.67
2018-10-21T00:26:33.453Z,9.30
2018-10-21T00:29:00.914Z,8.90
2018-10-21T00:31:28.304Z,9.43
2018-10-21T00:33:55.741Z,9.20
2018-10-21T00:36:23.071Z,8.93
2018-10-21T00:38:50.379Z,9.57
2018-10-21T00:41:21.200Z,9.53
2018-10-21T00:43:48.320Z,9.37
2018-10-21T00:46:15.439Z,9.50
2018-10-21T00:48:42.613Z,9.57
2018-10-21T00:51:09.743Z,10.23
2018-10-21T00:53:36.892Z,10.00
2018-10-21T00:56:04.093Z,10.50
2018-10-21T00:58:31.257Z,10.83
2018-10-21T01:00:58.373Z,10.03
2018-10-21T01:03:25.556Z,9.53
2018-10-21T01:05:52.729Z,10.07
2018-10-21T01:08:19.929Z,9.07
2018-10-21T01:10:47.105Z,8.67
2018-10-21T01:13:14.229Z,8.87
2018-10-21T01:15:41.370Z,9.23
2018-10-21T01:18:08.574Z,9.37
2018-10-21T01:20:35.723Z,9.50
2018-10-21T01:23:02.883Z,9.13
2018-10-21T01:25:30.112Z,9.30
2018-10-21T01:27:57.268Z,9.17
2018-10-21T01:30:24.388Z,9.23
2018-10-21T01:32:51.567Z,10.43
2018-10-21T01:35:18.693Z,10.03
2018-10-21T01:37:45.860Z,9.90
2018-10-21T01:40:46.799Z,10.20
2018-10-21T01:43:15.219Z,9.60
2018-10-21T01:45:42.336Z,9.37
2018-10-21T01:48:11.546Z,10.17
2018-10-21T01:50:38.699Z,10.37
2018-10-21T01:53:07.008Z,10.17
2018-10-21T01:55:34.181Z,10.53
2018-10-21T01:58:01.596Z,9.03
2018-10-21T02:00:29.560Z,8.97
2018-10-21T02:02:57.175Z,9.63
2018-10-21T02:05:24.577Z,8.90
2018-10-21T02:07:51.944Z,8.03
2018-10-21T02:10:19.109Z,8.60
2018-10-21T02:12:46.308Z,8.37
2018-10-21T02:15:13.882Z,9.33
2018-10-21T02:17:41.306Z,9.00
2018-10-21T02:20:09.621Z,9.50
2018-10-21T02:22:36.836Z,9.93
2018-10-21T02:25:04.352Z,9.60
2018-10-21T02:27:31.529Z,8.43
2018-10-21T02:29:58.649Z,9.10
2018-10-21T02:32:25.825Z,8.60
2018-10-21T02:34:52.957Z,9.23
2018-10-21T02:37:20.073Z,8.53
2018-10-21T02:39:47.262Z,8.97
2018-10-21T02:42:14.413Z,8.40
2018-10-21T02:44:41.552Z,8.10
2018-10-21T02:47:08.734Z,8.63
2018-10-21T02:49:35.863Z,8.33
2018-10-21T02:52:09.093Z,8.20
2018-10-21T02:54:36.512Z,7.77
2018-10-21T02:57:05.421Z,7.27
2018-10-21T02:59:32.584Z,8.13
2018-10-21T03:01:59.725Z,7.43
2018-10-21T03:04:26.847Z,8.30
2018-10-21T03:06:54.028Z,6.70
2018-10-21T03:09:21.249Z,6.70
2018-10-21T03:11:48.295Z,6.90
2018-10-21T03:14:15.539Z,6.70
2018-10-21T03:16:42.671Z,6.70
2018-10-21T03:19:09.813Z,6.77
2018-10-21T03:21:37.060Z,6.27
2018-10-21T03:24:04.433Z,6.03
2018-10-21T03:26:31.550Z,6.97
2018-10-21T03:28:58.724Z,7.30
2018-10-21T03:31:25.842Z,7.40
2018-10-21T03:33:53.048Z,7.57
2018-10-21T03:36:20.185Z,7.47
2018-10-21T03:38:47.304Z,8.17
2018-10-21T03:41:14.420Z,7.67
2018-10-21T03:43:41.600Z,8.40
2018-10-21T03:46:10.237Z,8.10
2018-10-21T03:48:37.349Z,7.90
2018-10-21T03:51:04.540Z,7.47
2018-10-21T03:53:31.645Z,7.07
2018-10-21T03:55:58.765Z,6.23
2018-10-21T03:58:25.949Z,5.60
2018-10-21T04:00:53.078Z,6.30
2018-10-21T04:03:20.187Z,6.07
2018-10-21T04:05:47.344Z,7.30
2018-10-21T04:08:14.483Z,5.20
2018-10-21T04:10:41.600Z,5.30
2018-10-21T04:13:08.777Z,5.43
2018-10-21T04:15:35.994Z,5.30
2018-10-21T04:18:03.229Z,5.83
2018-10-21T04:20:30.425Z,6.00
2018-10-21T04:22:58.594Z,7.10
2018-10-21T04:25:26.728Z,6.80
2018-10-21T04:27:54.970Z,7.27
2018-10-21T04:30:23.159Z,7.33
2018-10-21T04:33:08.622Z,7.47
2018-10-21T04:35:35.775Z,7.37
2018-10-21T04:38:39.645Z,6.93
2018-10-21T04:41:06.763Z,6.67
2018-10-21T04:43:33.877Z,6.50
2018-10-21T04:46:01.169Z,6.10
2018-10-21T04:48:28.270Z,7.13
2018-10-21T04:50:55.399Z,6.30
2018-10-21T04:53:22.582Z,6.53
2018-10-21T04:55:49.716Z,6.03
2018-10-21T04:58:16.958Z,5.40
2018-10-21T05:00:44.136Z,6.53
2018-10-21T05:03:11.177Z,6.87
2018-10-21T05:05:38.289Z,8.00
2018-10-21T05:08:05.485Z,9.10
2018-10-21T05:10:33.636Z,9.20
2018-10-21T05:13:00.876Z,12.60
2018-10-21T05:15:29.342Z,9.50
2018-10-21T05:17:56.564Z,10.00
2018-10-21T05:20:23.685Z,10.90
2018-10-21T05:22:50.867Z,10.73
2018-10-21T05:25:18.026Z,9.97
2018-10-21T05:27:45.183Z,11.73
2018-10-21T05:30:12.977Z,9.77
2018-10-21T05:32:40.501Z,11.37
2018-10-21T05:35:08.792Z,10.13
2018-10-21T05:37:36.385Z,10.83
2018-10-21T05:40:03.640Z,11.67
2018-10-21T05:42:30.773Z,9.07
2018-10-21T05:44:58.140Z,10.07
2018-10-21T05:47:25.261Z,10.13
2018-10-21T05:49:52.380Z,8.87
2018-10-21T05:52:19.560Z,9.17
2018-10-21T05:54:46.686Z,8.53
2018-10-21T05:57:13.788Z,9.33
2018-10-21T05:59:40.969Z,9.97
2018-10-21T06:02:08.088Z,8.87
2018-10-21T06:04:35.209Z,8.97
2018-10-21T06:07:02.385Z,9.23
2018-10-21T06:09:29.505Z,8.17
2018-10-21T06:11:56.632Z,8.70
2018-10-21T06:14:23.787Z,10.30
2018-10-21T06:16:54.434Z,12.17
2018-10-21T06:20:01.851Z,9.87
2018-10-21T06:22:33.565Z,12.13
2018-10-21T06:25:00.663Z,8.80
2018-10-21T06:27:27.895Z,12.43
2018-10-21T06:29:55.015Z,12.67
2018-10-21T06:32:22.196Z,10.37
2018-10-21T06:34:49.351Z,10.37
2018-10-21T06:37:16.460Z,9.17
2018-10-21T06:39:43.569Z,9.10
2018-10-21T06:42:10.883Z,9.37
2018-10-21T06:44:38.202Z,9.37
2018-10-21T06:47:05.550Z,9.87
2018-10-21T06:49:32.918Z,9.00
2018-10-21T06:52:00.193Z,9.60
2018-10-21T06:54:27.590Z,8.70
2018-10-21T06:56:55.032Z,9.47
2018-10-21T06:59:22.318Z,8.87
2018-10-21T07:01:49.935Z,9.10
2018-10-21T07:04:17.503Z,9.10
2018-10-21T07:06:44.946Z,9.47
2018-10-21T07:09:12.351Z,11.00
2018-10-21T07:11:39.853Z,12.20
2018-10-21T07:14:07.319Z,10.33
2018-10-21T07:16:34.805Z,9.73
2018-10-21T07:19:02.102Z,11.33
2018-10-21T07:21:29.414Z,10.03
2018-10-21T07:23:56.756Z,11.00
2018-10-21T07:26:24.136Z,12.40
2018-10-21T07:28:51.746Z,13.70
2018-10-21T07:31:19.451Z,14.87
2018-10-21T07:33:47.138Z,14.63
2018-10-21T07:36:14.945Z,13.27
2018-10-21T07:38:42.921Z,13.03
2018-10-21T07:41:10.859Z,12.83
2018-10-21T07:43:38.416Z,12.47
2018-10-21T07:46:05.993Z,13.13
2018-10-21T07:48:33.561Z,12.93
2018-10-21T07:51:01.799Z,12.87
2018-10-21T07:53:29.373Z,13.07
2018-10-21T07:55:56.993Z,14.47
2018-10-21T07:58:24.568Z,14.73
2018-10-21T08:00:52.124Z,14.27
2018-10-21T08:03:19.658Z,12.93
2018-10-21T08:05:58.726Z,13.37
2018-10-21T08:08:27.239Z,14.17
2018-10-21T08:10:54.732Z,16.53
2018-10-21T08:13:23.712Z,17.30
2018-10-21T08:15:51.290Z,16.30
2018-10-21T08:18:18.626Z,17.50
2018-10-21T08:20:47.154Z,13.57
2018-10-21T08:23:15.565Z,14.07
2018-10-21T08:25:44.298Z,13.23
2018-10-21T08:28:11.672Z,12.93
2018-10-21T08:30:39.215Z,12.53
2018-10-21T08:33:06.988Z,13.17
2018-10-21T08:35:34.618Z,12.47
2018-10-21T08:38:02.621Z,12.47
2018-10-21T08:40:30.018Z,11.60
2018-10-21T08:42:57.262Z,11.20
2018-10-21T08:45:25.004Z,10.77
2018-10-21T08:47:52.693Z,11.93
2018-10-21T08:50:20.124Z,10.97
2018-10-21T08:52:47.543Z,12.43
2018-10-21T08:55:15.316Z,13.43
2018-10-21T08:57:43.060Z,12.80
2018-10-21T09:00:13.090Z,15.03
2018-10-21T09:02:40.951Z,14.23
2018-10-21T09:05:09.982Z,14.37
2018-10-21T09:07:37.486Z,14.30
2018-10-21T09:10:05.815Z,13.47
2018-10-21T09:12:33.364Z,14.03
2018-10-21T09:15:00.715Z,13.53
2018-10-21T09:17:28.114Z,13.40
2018-10-21T09:19:55.463Z,13.13
2018-10-21T09:22:23.010Z,13.93
2018-10-21T09:24:50.784Z,13.77
2018-10-21T09:27:18.374Z,12.77
2018-10-21T09:29:45.906Z,12.50
2018-10-21T09:32:13.260Z,12.77
2018-10-21T09:34:40.725Z,12.67
2018-10-21T09:37:08.260Z,11.43
2018-10-21T09:39:35.987Z,11.60
2018-10-21T09:42:03.464Z,10.80
2018-10-21T09:44:31.126Z,9.87
2018-10-21T09:46:58.623Z,10.30
2018-10-21T09:49:25.886Z,9.93
2018-10-21T09:51:53.280Z,9.10
2018-10-21T09:54:20.876Z,8.40
2018-10-21T09:56:48.419Z,7.80
2018-10-21T09:59:15.882Z,7.77
2018-10-21T10:01:48.834Z,6.90
2018-10-21T10:04:16.683Z,7.93
2018-10-21T10:06:44.036Z,7.30
2018-10-21T10:09:12.527Z,7.27
2018-10-21T10:11:40.139Z,7.50
2018-10-21T10:14:07.546Z,7.10
2018-10-21T10:16:35.243Z,6.50
2018-10-21T10:19:03.535Z,6.27
2018-10-21T10:21:31.368Z,6.47
2018-10-21T10:23:59.051Z,6.10
2018-10-21T10:26:26.876Z,5.13
2018-10-21T10:28:54.687Z,3.97
2018-10-21T10:31:22.647Z,6.20
2018-10-21T10:33:50.542Z,5.40
2018-10-21T10:36:18.245Z,4.47
2018-10-21T10:38:45.812Z,4.27
2018-10-21T10:41:13.696Z,3.90
2018-10-21T10:43:41.660Z,4.20
2018-10-21T10:46:09.651Z,3.93
2018-10-21T10:48:37.299Z,4.00
2018-10-21T10:51:05.947Z,4.30
2018-10-21T10:53:34.075Z,4.60
2018-10-21T10:56:01.655Z,4.17
2018-10-21T10:58:29.499Z,4.80
2018-10-21T11:00:57.451Z,4.80
2018-10-21T11:03:25.164Z,5.27
2018-10-21T11:05:53.151Z,4.77
2018-10-21T11:08:20.962Z,4.47
2018-10-21T11:10:48.568Z,4.40
2018-10-21T11:13:16.905Z,4.50
2018-10-21T11:15:44.871Z,3.73
2018-10-21T11:18:12.499Z,3.87
2018-10-21T11:20:39.861Z,4.00
2018-10-21T11:23:07.514Z,3.83
2018-10-21T11:25:35.065Z,3.13
2018-10-21T11:28:02.431Z,4.07
2018-10-21T11:30:30.373Z,3.93
2018-10-21T11:32:58.000Z,3.53
2018-10-21T11:35:26.076Z,2.83
2018-10-21T11:37:53.848Z,3.50
2018-10-21T11:40:21.555Z,3.43
2018-10-21T11:42:49.207Z,2.93
2018-10-21T11:45:16.433Z,3.10
2018-10-21T11:47:43.942Z,3.50
2018-10-21T11:50:11.267Z,2.13
2018-10-21T11:52:39.004Z,2.30
2018-10-21T11:55:07.489Z,1.80
2018-10-21T11:57:34.738Z,2.10
2018-10-21T12:00:02.528Z,1.97
2018-10-21T12:02:29.903Z,2.90
2018-10-21T12:04:57.915Z,2.43
2018-10-21T12:07:25.604Z,2.50
2018-10-21T12:09:53.243Z,2.50
2018-10-21T12:12:20.772Z,2.50
2018-10-21T12:14:48.545Z,2.43
2018-10-21T12:17:16.329Z,2.20
2018-10-21T12:19:44.648Z,2.10
2018-10-21T12:22:12.143Z,2.43
2018-10-21T12:24:39.489Z,2.60
2018-10-21T12:27:06.790Z,2.60
2018-10-21T12:29:34.445Z,2.20
2018-10-21T12:32:01.759Z,2.40
2018-10-21T12:34:29.133Z,2.30
2018-10-21T12:36:56.398Z,2.70
2018-10-21T12:39:23.797Z,2.33
2018-10-21T12:41:51.379Z,2.03
2018-10-21T12:44:24.549Z,2.57
2018-10-21T12:46:51.776Z,2.67
2018-10-21T12:49:19.034Z,2.50
2018-10-21T12:51:46.238Z,2.50
2018-10-21T12:54:13.538Z,2.53
2018-10-21T12:56:40.669Z,2.23
2018-10-21T12:59:07.934Z,2.63
2018-10-21T13:01:35.161Z,2.20
2018-10-21T13:04:02.449Z,2.93
2018-10-21T13:06:29.708Z,2.80
2018-10-21T13:08:56.881Z,2.30
2018-10-21T13:11:24.096Z,2.77
2018-10-21T13:13:51.337Z,2.47
2018-10-21T13:16:18.598Z,3.10
2018-10-21T13:18:45.757Z,2.67
2018-10-21T13:21:13.026Z,2.23
2018-10-21T13:23:40.217Z,2.70
2018-10-21T13:26:07.404Z,2.37
2018-10-21T13:28:34.689Z,2.33
2018-10-21T13:31:01.990Z,2.77
2018-10-21T13:33:29.141Z,2.63
2018-10-21T13:35:57.270Z,2.60
2018-10-21T13:38:24.440Z,2.53
2018-10-21T13:40:51.649Z,2.40
2018-10-21T13:43:19.008Z,2.87
2018-10-21T13:45:46.233Z,2.27
2018-10-21T13:48:13.411Z,2.47
2018-10-21T13:50:40.669Z,2.27
2018-10-21T13:53:07.969Z,2.10
2018-10-21T13:55:35.065Z,2.43
2018-10-21T13:58:02.354Z,2.27
2018-10-21T14:00:29.527Z,2.20
2018-10-21T14:02:56.744Z,2.30
2018-10-21T14:05:23.964Z,2.60
2018-10-21T14:07:51.218Z,2.53
2018-10-21T14:10:18.516Z,2.20
2018-10-21T14:12:45.701Z,1.97
2018-10-21T14:15:12.937Z,2.50
2018-10-21T14:17:40.115Z,2.33
2018-10-21T14:20:08.653Z,2.43
2018-10-21T14:22:35.878Z,2.57
2018-10-21T14:25:03.120Z,2.63
2018-10-21T14:27:30.389Z,2.47
2018-10-21T14:29:57.630Z,2.50
2018-10-21T14:32:24.836Z,2.47
2018-10-21T14:34:52.058Z,2.40
2018-10-21T14:37:19.262Z,2.50
2018-10-21T14:39:46.449Z,2.67
2018-10-21T14:42:13.757Z,2.40
2018-10-21T14:44:40.911Z,2.70
2018-10-21T14:47:08.193Z,2.33
2018-10-21T14:49:35.442Z,2.63
2018-10-21T14:52:02.874Z,2.13
2018-10-21T14:54:30.074Z,2.90
2018-10-21T14:56:57.314Z,2.83
2018-10-21T14:59:24.549Z,2.60
2018-10-21T15:01:51.788Z,2.90
2018-10-21T15:04:19.029Z,2.20
2018-10-21T15:06:46.278Z,2.23
2018-10-21T15:09:14.195Z,3.10
2018-10-21T15:11:41.868Z,2.57
2018-10-21T15:14:10.205Z,3.30
2018-10-21T15:16:37.384Z,3.33
2018-10-21T15:19:04.807Z,2.63
2018-10-21T15:21:32.002Z,2.97
2018-10-21T15:23:59.200Z,2.77
2018-10-21T15:26:26.438Z,3.00
2018-10-21T15:28:53.636Z,2.30
2018-10-21T15:31:20.849Z,2.40
2018-10-21T15:33:48.082Z,2.13
2018-10-21T15:36:15.278Z,2.53
2018-10-21T15:38:42.440Z,2.20
2018-10-21T15:41:09.699Z,2.27
2018-10-21T15:43:36.934Z,2.60
2018-10-21T15:46:04.212Z,2.27
2018-10-21T15:48:31.523Z,2.40
2018-10-21T15:50:58.660Z,2.13
2018-10-21T15:53:25.849Z,3.00
2018-10-21T15:55:53.109Z,2.80
2018-10-21T15:58:20.296Z,2.43
2018-10-21T16:00:47.487Z,2.80
2018-10-21T16:03:14.705Z,3.13
2018-10-21T16:05:41.898Z,3.00
2018-10-21T16:08:09.143Z,4.20
2018-10-21T16:10:36.570Z,4.00
2018-10-21T16:13:04.984Z,4.50
2018-10-21T16:15:32.223Z,4.40
2018-10-21T16:17:59.495Z,4.30
2018-10-21T16:20:26.666Z,4.63
2018-10-21T16:22:53.864Z,4.23
2018-10-21T16:25:21.209Z,3.97
2018-10-21T16:27:48.380Z,5.60
2018-10-21T16:30:16.229Z,7.23
2018-10-21T16:32:44.303Z,10.67
2018-10-21T16:35:11.966Z,12.80
2018-10-21T16:37:39.711Z,12.20
2018-10-21T16:40:08.773Z,12.10
2018-10-21T16:42:36.074Z,10.37
2018-10-21T16:45:03.420Z,9.47
2018-10-21T16:47:30.664Z,9.60
2018-10-21T16:49:57.870Z,9.07
2018-10-21T16:52:25.064Z,8.93
2018-10-21T16:54:52.319Z,8.97
2018-10-21T16:57:19.547Z,9.87
2018-10-21T16:59:46.791Z,9.33
2018-10-21T17:02:14.013Z,10.67
2018-10-21T17:04:41.188Z,11.37
2018-10-21T17:07:08.463Z,11.93
2018-10-21T17:09:35.860Z,11.83
2018-10-21T17:12:02.994Z,12.20
2018-10-21T17:14:30.241Z,12.67
2018-10-21T17:16:57.530Z,12.27
2018-10-21T17:19:24.722Z,13.07
2018-10-21T17:21:51.906Z,12.37
2018-10-21T17:24:19.244Z,12.00
2018-10-21T17:26:46.385Z,10.90
2018-10-21T17:29:13.598Z,11.53
2018-10-21T17:31:40.859Z,12.07
2018-10-21T17:34:08.105Z,12.93
2018-10-21T17:36:35.250Z,12.40
2018-10-21T17:39:02.820Z,12.73
2018-10-21T17:41:30.013Z,13.07
2018-10-21T17:43:57.216Z,13.80
2018-10-21T17:46:24.496Z,14.20
2018-10-21T17:48:51.673Z,16.27
2018-10-21T17:51:18.846Z,15.53
2018-10-21T17:53:46.139Z,16.17
2018-10-21T17:56:13.319Z,15.27
2018-10-21T17:58:40.541Z,14.50
2018-10-21T18:01:07.854Z,15.33
2018-10-21T18:03:35.052Z,16.63
2018-10-21T18:06:02.318Z,17.77
2018-10-21T18:08:29.566Z,20.37
2018-10-21T18:10:56.758Z,19.87
2018-10-21T18:13:24.036Z,21.07
2018-10-21T18:15:51.290Z,20.07
2018-10-21T18:18:18.586Z,20.03
2018-10-21T18:20:45.783Z,21.90
2018-10-21T18:23:13.012Z,21.97
2018-10-21T18:25:40.193Z,21.63
2018-10-21T18:28:07.425Z,19.97
2018-10-21T18:30:34.673Z,20.60
2018-10-21T18:33:01.942Z,20.60
2018-10-21T18:35:29.146Z,18.63
2018-10-21T18:37:56.399Z,18.40
2018-10-21T18:40:23.749Z,17.60
2018-10-21T18:42:50.897Z,17.60
2018-10-21T18:45:18.153Z,17.37
2018-10-21T18:47:45.478Z,17.27
2018-10-21T18:50:13.578Z,17.13
2018-10-21T18:52:40.906Z,16.60
2018-10-21T18:55:08.683Z,17.33
2018-10-21T18:57:35.885Z,17.57
2018-10-21T19:00:03.237Z,16.83
2018-10-21T19:02:30.420Z,14.60
2018-10-21T19:04:57.601Z,14.43
2018-10-21T19:07:24.910Z,14.17
2018-10-21T19:09:52.200Z,14.70
2018-10-21T19:12:19.556Z,15.30
2018-10-21T19:14:46.809Z,15.53
2018-10-21T19:17:14.002Z,16.10
2018-10-21T19:19:41.247Z,17.67
2018-10-21T19:22:08.512Z,21.93
2018-10-21T19:24:35.657Z,23.80
2018-10-21T19:27:02.860Z,23.80
2018-10-21T19:29:30.113Z,22.40
2018-10-21T19:31:57.313Z,23.53
2018-10-21T19:34:24.687Z,21.80
2018-10-21T19:36:51.930Z,23.53
2018-10-21T19:39:19.143Z,26.73
2018-10-21T19:41:46.421Z,23.47
2018-10-21T19:44:13.657Z,23.90
2018-10-21T19:46:40.845Z,22.67
2018-10-21T19:49:08.661Z,19.17
2018-10-21T19:51:35.958Z,18.43
2018-10-21T19:54:03.177Z,17.03
2018-10-21T19:56:31.326Z,16.47
2018-10-21T19:58:58.665Z,16.27
2018-10-21T20:01:25.860Z,15.93
2018-10-21T20:03:53.097Z,15.70
2018-10-21T20:06:20.450Z,14.97
2018-10-21T20:08:47.649Z,15.13
2018-10-21T20:11:14.853Z,14.23
2018-10-21T20:13:42.088Z,14.33
2018-10-21T20:16:09.323Z,15.80
2018-10-21T20:18:36.658Z,14.67
2018-10-21T20:21:04.542Z,13.90
2018-10-21T20:23:31.739Z,13.37
2018-10-21T20:25:58.929Z,14.00
2018-10-21T20:28:26.157Z,13.87
2018-10-21T20:30:53.471Z,13.30
2018-10-21T20:33:20.699Z,12.67
2018-10-21T20:35:47.918Z,12.10
2018-10-21T20:38:15.117Z,10.97
2018-10-21T20:40:42.323Z,10.73
2018-10-21T20:43:09.635Z,10.90
2018-10-21T20:45:36.836Z,10.00
2018-10-21T20:48:04.082Z,10.87
2018-10-21T20:50:31.314Z,11.43
2018-10-21T20:52:58.609Z,11.40
2018-10-21T20:55:25.802Z,11.80
2018-10-21T20:57:53.092Z,14.13
2018-10-21T21:00:20.247Z,12.40
2018-10-21T21:02:47.429Z,12.53
2018-10-21T21:05:14.672Z,11.60
2018-10-21T21:07:41.877Z,11.73
2018-10-21T21:10:09.538Z,10.53
2018-10-21T21:12:36.734Z,11.80
2018-10-21T21:15:04.294Z,11.07
2018-10-21T21:17:31.492Z,10.60
2018-10-21T21:19:58.833Z,11.53
2018-10-21T21:22:26.014Z,11.47
2018-10-21T21:24:53.229Z,11.50
2018-10-21T21:27:20.513Z,11.17
2018-10-21T21:29:47.705Z,10.50
2018-10-21T21:32:14.885Z,10.33
2018-10-21T21:34:42.100Z,10.17
2018-10-21T21:37:09.301Z,9.90
2018-10-21T21:39:36.486Z,9.97
2018-10-21T21:42:04.137Z,9.07
2018-10-21T21:44:31.378Z,9.30
2018-10-21T21:46:58.574Z,9.20
2018-10-21T21:49:25.802Z,8.40
2018-10-21T21:51:53.001Z,8.23
2018-10-21T21:54:20.181Z,8.70
2018-10-21T21:56:47.421Z,8.80
2018-10-21T21:59:14.636Z,8.83
2018-10-21T22:01:41.850Z,8.63
2018-10-21T22:04:09.168Z,8.10
2018-10-21T22:06:36.675Z,7.93
2018-10-21T22:09:09.022Z,7.80
2018-10-21T22:11:36.374Z,8.20
2018-10-21T22:14:03.765Z,8.33
2018-10-21T22:16:31.046Z,7.87
2018-10-21T22:18:58.236Z,7.70
2018-10-21T22:21:25.423Z,8.20
2018-10-21T22:23:52.701Z,7.47
2018-10-21T22:26:19.948Z,8.73
2018-10-21T22:28:47.134Z,7.10
2018-10-21T22:31:14.370Z,7.30
2018-10-21T22:33:41.559Z,6.93
2018-10-21T22:36:08.794Z,7.07
2018-10-21T22:38:36.080Z,7.57
2018-10-21T22:41:04.201Z,7.20
2018-10-21T22:43:31.389Z,7.87
2018-10-21T22:45:58.751Z,6.73
2018-10-21T22:48:25.955Z,6.30
2018-10-21T22:50:53.143Z,6.70
2018-10-21T22:53:20.380Z,7.73
2018-10-21T22:55:47.559Z,6.90
2018-10-21T22:58:14.817Z,7.50
2018-10-21T23:00:42.004Z,7.27
2018-10-21T23:03:09.205Z,7.97
2018-10-21T23:05:36.393Z,7.67
2018-10-21T23:08:03.667Z,7.30
2018-10-21T23:10:30.859Z,8.10
2018-10-21T23:12:58.256Z,7.60
2018-10-21T23:15:25.509Z,7.57
2018-10-21T23:17:52.722Z,8.13
2018-10-21T23:20:19.978Z,6.70
2018-10-21T23:22:47.242Z,7.63
2018-10-21T23:25:14.458Z,7.67
2018-10-21T23:27:41.645Z,7.20
2018-10-21T23:30:08.932Z,7.13
2018-10-21T23:32:36.111Z,7.40
2018-10-21T23:35:03.407Z,7.40
2018-10-21T23:37:30.657Z,8.10
2018-10-21T23:39:57.872Z,7.57
2018-10-21T23:42:25.095Z,7.40
2018-10-21T23:44:52.343Z,7.67
2018-10-21T23:47:19.615Z,8.37
2018-10-21T23:49:46.813Z,7.80
2018-10-21T23:52:14.137Z,7.80
2018-10-21T23:54:41.350Z,7.53
2018-10-21T23:57:08.537Z,7.67
2018-10-21T23:59:36.446Z,7.30
